createdAt,value
2018-09-20T00:00:56.195Z,17.80
2018-09-20T00:02:00.527Z,17.80
2018-09-20T00:03:04.789Z,17.80
2018-09-20T00:04:09.312Z,17.90
2018-09-20T00:05:13.998Z,17.90
2018-09-20T00:06:18.406Z,17.80
2018-09-20T00:07:22.856Z,17.80
2018-09-20T00:08:27.203Z,17.80
2018-09-20T00:09:31.546Z,17.90
2018-09-20T00:10:35.749Z,17.90
2018-09-20T00:11:40.481Z,17.80
2018-09-20T00:12:45.243Z,17.80
2018-09-20T00:13:49.676Z,17.80
2018-09-20T00:14:54.326Z,17.80
2018-09-20T00:15:58.658Z,17.80
2018-09-20T00:17:03.210Z,17.80
2018-09-20T00:18:07.730Z,17.90
2018-09-20T00:19:11.967Z,17.90
2018-09-20T00:20:16.616Z,17.80
2018-09-20T00:21:21.164Z,17.80
2018-09-20T00:22:25.704Z,17.70
2018-09-20T00:23:30.174Z,17.70
2018-09-20T00:24:34.448Z,17.70
2018-09-20T00:25:38.909Z,17.70
2018-09-20T00:26:43.539Z,17.70
2018-09-20T00:27:48.397Z,17.70
2018-09-20T00:28:53.113Z,17.70
2018-09-20T00:29:57.678Z,17.70
2018-09-20T00:31:02.084Z,17.70
2018-09-20T00:32:06.327Z,17.70
2018-09-20T00:33:10.513Z,17.60
2018-09-20T00:34:15.092Z,17.70
2018-09-20T00:35:19.478Z,17.60
2018-09-20T00:36:23.963Z,17.60
2018-09-20T00:37:28.727Z,17.60
2018-09-20T00:38:32.940Z,17.50
2018-09-20T00:39:37.221Z,17.60
2018-09-20T00:40:41.530Z,17.60
2018-09-20T00:41:45.832Z,17.60
2018-09-20T00:42:50.922Z,17.60
2018-09-20T00:43:55.467Z,17.60
2018-09-20T00:45:00.005Z,17.50
2018-09-20T00:46:04.284Z,17.60
2018-09-20T00:47:08.716Z,17.60
2018-09-20T00:48:13.579Z,17.60
2018-09-20T00:49:18.019Z,17.50
2018-09-20T00:50:22.349Z,17.50
2018-09-20T00:51:26.790Z,17.50
2018-09-20T00:52:31.227Z,17.40
2018-09-20T00:53:35.627Z,17.50
2018-09-20T00:54:39.780Z,17.50
2018-09-20T00:55:44.150Z,17.50
2018-09-20T00:56:48.426Z,17.50
2018-09-20T00:57:52.891Z,17.50
2018-09-20T00:58:57.248Z,17.50
2018-09-20T01:00:01.679Z,17.50
2018-09-20T01:01:06.333Z,17.50
2018-09-20T01:02:10.782Z,17.50
2018-09-20T01:03:14.916Z,17.40
2018-09-20T01:04:19.105Z,17.50
2018-09-20T01:05:23.633Z,17.50
2018-09-20T01:06:28.106Z,17.50
2018-09-20T01:07:32.434Z,17.50
2018-09-20T01:08:36.758Z,17.50
2018-09-20T01:09:41.065Z,17.50
2018-09-20T01:10:45.147Z,17.50
2018-09-20T01:11:49.541Z,17.50
2018-09-20T01:12:53.730Z,17.50
2018-09-20T01:13:57.914Z,17.50
2018-09-20T01:15:02.167Z,17.50
2018-09-20T01:16:06.991Z,17.50
2018-09-20T01:17:11.296Z,17.50
2018-09-20T01:18:15.761Z,17.50
2018-09-20T01:19:20.011Z,17.50
2018-09-20T01:20:24.368Z,17.50
2018-09-20T01:21:28.678Z,17.40
2018-09-20T01:22:32.839Z,17.40
2018-09-20T01:23:37.237Z,17.40
2018-09-20T01:24:41.394Z,17.40
2018-09-20T01:25:45.635Z,17.30
2018-09-20T01:26:50.054Z,17.30
2018-09-20T01:27:54.267Z,17.40
2018-09-20T01:28:58.759Z,17.40
2018-09-20T01:30:03.145Z,17.40
2018-09-20T01:31:07.338Z,17.40
2018-09-20T01:32:11.481Z,17.40
2018-09-20T01:33:15.585Z,17.40
2018-09-20T01:34:19.725Z,17.40
2018-09-20T01:35:24.051Z,17.40
2018-09-20T01:36:28.143Z,17.30
2018-09-20T01:37:32.295Z,17.30
2018-09-20T01:38:36.769Z,17.40
2018-09-20T01:39:41.487Z,17.30
2018-09-20T01:40:45.932Z,17.40
2018-09-20T01:41:50.328Z,17.30
2018-09-20T01:42:54.755Z,17.30
2018-09-20T01:43:58.841Z,17.30
2018-09-20T01:45:03.016Z,17.40
2018-09-20T01:46:07.231Z,17.40
2018-09-20T01:47:11.547Z,17.40
2018-09-20T01:48:15.846Z,17.40
2018-09-20T01:49:20.626Z,17.40
2018-09-20T01:50:24.982Z,17.40
2018-09-20T01:51:29.467Z,17.40
2018-09-20T01:52:33.652Z,17.40
2018-09-20T01:53:37.956Z,17.50
2018-09-20T01:54:42.233Z,17.40
2018-09-20T01:55:46.520Z,17.40
2018-09-20T01:56:50.776Z,17.50
2018-09-20T01:57:54.918Z,17.50
2018-09-20T01:58:59.007Z,17.40
2018-09-20T02:00:03.294Z,17.40
2018-09-20T02:01:07.765Z,17.40
2018-09-20T02:02:11.927Z,17.40
2018-09-20T02:03:16.296Z,17.40
2018-09-20T02:04:20.577Z,17.40
2018-09-20T02:05:24.888Z,17.40
2018-09-20T02:06:29.197Z,17.30
2018-09-20T02:07:33.373Z,17.30
2018-09-20T02:08:37.803Z,17.30
2018-09-20T02:09:42.317Z,17.20
2018-09-20T02:10:46.688Z,17.20
2018-09-20T02:11:51.077Z,17.20
2018-09-20T02:12:55.393Z,17.20
2018-09-20T02:13:59.575Z,17.20
2018-09-20T02:15:04.229Z,17.20
2018-09-20T02:16:08.721Z,17.20
2018-09-20T02:17:13.304Z,17.30
2018-09-20T02:18:17.440Z,17.30
2018-09-20T02:19:21.667Z,17.30
2018-09-20T02:20:26.014Z,17.30
2018-09-20T02:21:30.215Z,17.20
2018-09-20T02:22:34.606Z,17.20
2018-09-20T02:23:39.088Z,17.20
2018-09-20T02:24:43.653Z,17.10
2018-09-20T02:25:48.281Z,17.10
2018-09-20T02:26:52.553Z,17.10
2018-09-20T02:27:56.700Z,17.00
2018-09-20T02:29:01.342Z,17.10
2018-09-20T02:30:05.678Z,17.10
2018-09-20T02:31:10.298Z,17.00
2018-09-20T02:32:14.527Z,17.00
2018-09-20T02:33:18.675Z,17.00
2018-09-20T02:34:23.107Z,17.00
2018-09-20T02:35:27.378Z,16.90
2018-09-20T02:36:31.770Z,16.90
2018-09-20T02:37:35.883Z,16.90
2018-09-20T02:38:40.119Z,16.90
2018-09-20T02:39:44.373Z,16.90
2018-09-20T02:40:48.894Z,17.00
2018-09-20T02:41:53.301Z,16.90
2018-09-20T02:42:57.562Z,17.00
2018-09-20T02:44:01.794Z,17.00
2018-09-20T02:45:06.117Z,17.00
2018-09-20T02:46:10.236Z,16.90
2018-09-20T02:47:14.638Z,16.90
2018-09-20T02:48:19.209Z,16.90
2018-09-20T02:49:23.759Z,16.80
2018-09-20T02:50:28.153Z,16.80
2018-09-20T02:51:32.500Z,16.80
2018-09-20T02:52:36.893Z,16.80
2018-09-20T02:53:40.966Z,16.80
2018-09-20T02:54:45.133Z,16.80
2018-09-20T02:55:49.711Z,16.80
2018-09-20T02:56:53.874Z,16.80
2018-09-20T02:57:58.125Z,16.80
2018-09-20T02:59:02.634Z,16.80
2018-09-20T03:00:06.822Z,16.80
2018-09-20T03:01:10.965Z,16.80
2018-09-20T03:02:15.067Z,16.80
2018-09-20T03:03:19.580Z,16.80
2018-09-20T03:04:23.698Z,16.80
2018-09-20T03:05:28.357Z,16.80
2018-09-20T03:06:32.696Z,16.80
2018-09-20T03:07:36.981Z,16.70
2018-09-20T03:08:41.342Z,16.70
2018-09-20T03:09:45.474Z,16.70
2018-09-20T03:10:49.718Z,16.70
2018-09-20T03:11:54.227Z,16.60
2018-09-20T03:12:58.414Z,16.60
2018-09-20T03:14:02.891Z,16.50
2018-09-20T03:15:07.338Z,16.50
2018-09-20T03:16:11.774Z,16.50
2018-09-20T03:17:15.925Z,16.50
2018-09-20T03:18:20.171Z,16.50
2018-09-20T03:19:24.445Z,16.50
2018-09-20T03:20:28.527Z,16.50
2018-09-20T03:21:32.911Z,16.40
2018-09-20T03:22:37.325Z,16.40
2018-09-20T03:23:41.614Z,16.40
2018-09-20T03:24:45.733Z,16.40
2018-09-20T03:25:49.920Z,16.40
2018-09-20T03:26:54.281Z,16.40
2018-09-20T03:27:58.473Z,16.30
2018-09-20T03:29:03.257Z,16.30
2018-09-20T03:30:07.508Z,16.30
2018-09-20T03:31:11.915Z,16.30
2018-09-20T03:32:16.129Z,16.30
2018-09-20T03:33:20.202Z,16.30
2018-09-20T03:34:24.771Z,16.30
2018-09-20T03:35:29.355Z,16.20
2018-09-20T03:36:33.694Z,16.20
2018-09-20T03:37:38.438Z,16.10
2018-09-20T03:38:42.658Z,16.10
2018-09-20T03:39:46.881Z,16.10
2018-09-20T03:40:51.207Z,16.10
2018-09-20T03:41:55.730Z,16.10
2018-09-20T03:43:00.133Z,16.10
2018-09-20T03:44:04.237Z,16.10
2018-09-20T03:45:08.362Z,16.10
2018-09-20T03:46:12.501Z,16.10
2018-09-20T03:47:17.054Z,16.00
2018-09-20T03:48:21.262Z,16.00
2018-09-20T03:49:25.931Z,16.10
2018-09-20T03:50:30.056Z,16.10
2018-09-20T03:51:34.505Z,16.00
2018-09-20T03:52:38.617Z,16.00
2018-09-20T03:53:42.920Z,16.00
2018-09-20T03:54:47.306Z,15.90
2018-09-20T03:55:51.600Z,16.00
2018-09-20T03:56:56.013Z,16.00
2018-09-20T03:58:00.185Z,16.00
2018-09-20T03:59:04.381Z,16.00
2018-09-20T04:00:08.671Z,16.00
2018-09-20T04:01:13.216Z,16.00
2018-09-20T04:02:17.507Z,16.00
2018-09-20T04:03:21.917Z,16.00
2018-09-20T04:04:26.576Z,16.10
2018-09-20T04:05:30.958Z,16.10
2018-09-20T04:07:15.290Z,16.10
2018-09-20T04:08:19.950Z,16.10
2018-09-20T04:09:24.228Z,16.10
2018-09-20T04:10:28.635Z,16.10
2018-09-20T04:11:32.896Z,16.10
2018-09-20T04:12:36.994Z,16.10
2018-09-20T04:13:41.322Z,16.10
2018-09-20T04:14:45.594Z,16.10
2018-09-20T04:15:50.167Z,16.10
2018-09-20T04:16:54.632Z,16.10
2018-09-20T04:17:59.044Z,16.10
2018-09-20T04:19:03.526Z,16.20
2018-09-20T04:20:08.180Z,16.20
2018-09-20T04:21:12.409Z,16.20
2018-09-20T04:22:16.835Z,16.20
2018-09-20T04:23:21.376Z,16.20
2018-09-20T04:24:25.471Z,16.20
2018-09-20T04:25:29.738Z,16.30
2018-09-20T04:26:34.134Z,16.20
2018-09-20T04:27:38.316Z,16.20
2018-09-20T04:28:42.535Z,16.20
2018-09-20T04:29:46.614Z,16.20
2018-09-20T04:30:51.002Z,16.20
2018-09-20T04:31:55.389Z,16.20
2018-09-20T04:32:59.777Z,16.20
2018-09-20T04:34:04.025Z,16.20
2018-09-20T04:35:08.436Z,16.20
2018-09-20T04:36:12.625Z,16.20
2018-09-20T04:37:17.039Z,16.20
2018-09-20T04:38:21.281Z,16.20
2018-09-20T04:39:25.659Z,16.20
2018-09-20T04:40:30.238Z,16.20
2018-09-20T04:41:34.450Z,16.20
2018-09-20T04:42:39.009Z,16.20
2018-09-20T04:43:43.619Z,16.20
2018-09-20T04:44:47.869Z,16.20
2018-09-20T04:45:52.391Z,16.20
2018-09-20T04:46:56.752Z,16.20
2018-09-20T04:48:01.317Z,16.20
2018-09-20T04:49:05.633Z,16.30
2018-09-20T04:50:10.473Z,16.30
2018-09-20T04:51:14.801Z,16.30
2018-09-20T04:52:19.249Z,16.30
2018-09-20T04:53:23.946Z,16.30
2018-09-20T04:54:28.353Z,16.30
2018-09-20T04:55:32.473Z,16.30
2018-09-20T04:56:36.782Z,16.20
2018-09-20T04:57:41.107Z,16.20
2018-09-20T04:58:45.248Z,16.20
2018-09-20T04:59:49.470Z,16.20
2018-09-20T05:00:53.774Z,16.20
2018-09-20T05:01:58.114Z,16.20
2018-09-20T05:03:02.313Z,16.20
2018-09-20T05:04:07.767Z,16.20
2018-09-20T05:05:12.813Z,16.20
2018-09-20T05:06:19.068Z,16.10
2018-09-20T05:07:23.470Z,16.10
2018-09-20T05:08:27.866Z,16.00
2018-09-20T05:09:32.088Z,16.00
2018-09-20T05:10:36.483Z,16.00
2018-09-20T05:11:40.749Z,16.10
2018-09-20T05:12:45.287Z,16.10
2018-09-20T05:13:49.470Z,16.00
2018-09-20T05:14:53.636Z,16.10
2018-09-20T05:15:57.895Z,16.00
2018-09-20T05:17:02.337Z,16.10
2018-09-20T05:18:06.459Z,16.10
2018-09-20T05:19:10.790Z,16.00
2018-09-20T05:20:14.970Z,16.00
2018-09-20T05:21:19.150Z,16.00
2018-09-20T05:22:23.562Z,16.00
2018-09-20T05:23:28.035Z,16.00
2018-09-20T05:24:32.142Z,16.00
2018-09-20T05:25:36.297Z,16.00
2018-09-20T05:26:40.477Z,16.00
2018-09-20T05:27:44.850Z,16.00
2018-09-20T05:28:49.205Z,16.00
2018-09-20T05:29:53.517Z,16.00
2018-09-20T05:30:57.692Z,16.00
2018-09-20T05:32:01.964Z,16.00
2018-09-20T05:33:06.392Z,16.00
2018-09-20T05:34:10.549Z,16.00
2018-09-20T05:35:14.718Z,16.00
2018-09-20T05:36:19.486Z,16.00
2018-09-20T05:37:23.832Z,16.00
2018-09-20T05:38:27.998Z,16.00
2018-09-20T05:39:32.306Z,16.00
2018-09-20T05:40:36.474Z,16.10
2018-09-20T05:41:40.831Z,16.10
2018-09-20T05:42:45.064Z,16.10
2018-09-20T05:43:49.197Z,16.10
2018-09-20T05:44:53.322Z,16.10
2018-09-20T05:45:57.622Z,16.10
2018-09-20T05:47:01.956Z,16.20
2018-09-20T05:48:06.385Z,16.10
2018-09-20T05:49:10.832Z,16.20
2018-09-20T05:50:15.215Z,16.10
2018-09-20T05:51:19.339Z,16.20
2018-09-20T05:52:23.572Z,16.10
2018-09-20T05:53:27.934Z,16.20
2018-09-20T05:54:32.285Z,16.20
2018-09-20T05:55:36.769Z,16.20
2018-09-20T05:56:41.155Z,16.30
2018-09-20T05:57:45.312Z,16.30
2018-09-20T05:58:49.629Z,16.30
2018-09-20T05:59:54.025Z,16.30
2018-09-20T06:00:58.419Z,16.30
2018-09-20T06:02:02.753Z,16.30
2018-09-20T06:03:06.954Z,16.40
2018-09-20T06:04:11.386Z,16.40
2018-09-20T06:05:15.831Z,16.40
2018-09-20T06:06:20.083Z,16.30
2018-09-20T06:07:24.648Z,16.30
2018-09-20T06:08:28.952Z,16.40
2018-09-20T06:09:33.524Z,16.40
2018-09-20T06:10:37.891Z,16.40
2018-09-20T06:11:42.269Z,16.40
2018-09-20T06:12:46.601Z,16.50
2018-09-20T06:13:50.941Z,16.50
2018-09-20T06:14:55.272Z,16.50
2018-09-20T06:15:59.682Z,16.60
2018-09-20T06:17:04.063Z,16.50
2018-09-20T06:18:08.341Z,16.50
2018-09-20T06:19:12.751Z,16.60
2018-09-20T06:20:17.425Z,16.60
2018-09-20T06:21:21.779Z,16.60
2018-09-20T06:22:25.939Z,16.60
2018-09-20T06:23:30.244Z,16.70
2018-09-20T06:24:34.537Z,16.80
2018-09-20T06:25:38.679Z,16.70
2018-09-20T06:26:42.782Z,16.80
2018-09-20T06:27:46.995Z,16.70
2018-09-20T06:28:51.220Z,16.80
2018-09-20T06:29:55.685Z,16.70
2018-09-20T06:31:00.059Z,16.80
2018-09-20T06:32:04.694Z,16.80
2018-09-20T06:33:09.063Z,16.80
2018-09-20T06:34:13.230Z,16.90
2018-09-20T06:35:17.617Z,16.90
2018-09-20T06:36:22.053Z,17.00
2018-09-20T06:37:26.258Z,17.00
2018-09-20T06:38:30.522Z,17.00
2018-09-20T06:39:34.794Z,17.10
2018-09-20T06:40:39.226Z,17.10
2018-09-20T06:41:43.465Z,17.10
2018-09-20T06:42:47.851Z,17.10
2018-09-20T06:43:51.988Z,17.20
2018-09-20T06:44:56.330Z,17.20
2018-09-20T06:46:00.391Z,17.20
2018-09-20T06:47:04.609Z,17.20
2018-09-20T06:48:08.880Z,17.30
2018-09-20T06:49:13.073Z,17.30
2018-09-20T06:50:17.454Z,17.30
2018-09-20T06:51:21.558Z,17.40
2018-09-20T06:52:25.925Z,17.40
2018-09-20T06:53:30.062Z,17.40
2018-09-20T06:54:34.188Z,17.50
2018-09-20T06:55:38.480Z,17.50
2018-09-20T06:56:42.894Z,17.50
2018-09-20T06:57:47.048Z,17.50
2018-09-20T06:58:51.520Z,17.60
2018-09-20T06:59:55.764Z,17.50
2018-09-20T07:01:00.150Z,17.60
2018-09-20T07:02:04.516Z,17.60
2018-09-20T07:03:08.815Z,17.60
2018-09-20T07:04:13.072Z,17.70
2018-09-20T07:05:17.291Z,17.70
2018-09-20T07:06:21.823Z,17.70
2018-09-20T07:07:26.398Z,17.70
2018-09-20T07:08:30.636Z,17.80
2018-09-20T07:09:34.817Z,17.90
2018-09-20T07:10:39.215Z,17.90
2018-09-20T07:11:43.540Z,18.00
2018-09-20T07:12:47.929Z,18.00
2018-09-20T07:13:52.030Z,18.00
2018-09-20T07:14:56.366Z,18.00
2018-09-20T07:16:00.714Z,18.00
2018-09-20T07:17:05.218Z,18.10
2018-09-20T07:18:09.412Z,18.10
2018-09-20T07:19:13.702Z,18.20
2018-09-20T07:20:18.074Z,18.20
2018-09-20T07:21:22.507Z,18.20
2018-09-20T07:22:26.774Z,18.30
2018-09-20T07:23:30.908Z,18.30
2018-09-20T07:24:35.246Z,18.30
2018-09-20T07:25:39.655Z,18.30
2018-09-20T07:26:43.872Z,18.30
2018-09-20T07:27:48.195Z,18.40
2018-09-20T07:28:52.230Z,18.40
2018-09-20T07:29:56.320Z,18.40
2018-09-20T07:31:00.573Z,18.50
2018-09-20T07:32:04.869Z,18.50
2018-09-20T07:33:09.143Z,18.50
2018-09-20T07:34:13.833Z,18.50
2018-09-20T07:35:17.894Z,18.60
2018-09-20T07:36:22.194Z,18.60
2018-09-20T07:37:26.680Z,18.60
2018-09-20T07:38:31.090Z,18.70
2018-09-20T07:39:35.585Z,18.70
2018-09-20T07:40:40.056Z,18.70
2018-09-20T07:41:44.371Z,18.70
2018-09-20T07:42:48.575Z,18.80
2018-09-20T07:43:52.879Z,18.80
2018-09-20T07:44:57.003Z,18.80
2018-09-20T07:46:01.422Z,18.90
2018-09-20T07:47:05.584Z,19.00
2018-09-20T07:48:09.697Z,19.00
2018-09-20T07:49:13.863Z,19.00
2018-09-20T07:50:18.113Z,19.00
2018-09-20T07:51:22.388Z,19.00
2018-09-20T07:52:26.992Z,19.10
2018-09-20T07:53:31.213Z,19.10
2018-09-20T07:54:35.406Z,19.10
2018-09-20T07:55:39.685Z,19.10
2018-09-20T07:56:43.971Z,19.20
2018-09-20T07:57:48.308Z,19.20
2018-09-20T07:58:52.669Z,19.30
2018-09-20T07:59:57.291Z,19.30
2018-09-20T08:01:01.583Z,19.40
2018-09-20T08:02:06.168Z,19.40
2018-09-20T08:03:10.690Z,19.40
2018-09-20T08:04:14.933Z,19.50
2018-09-20T08:05:19.265Z,19.50
2018-09-20T08:06:23.437Z,19.60
2018-09-20T08:07:27.860Z,19.60
2018-09-20T08:08:31.958Z,19.60
2018-09-20T08:09:36.137Z,19.70
2018-09-20T08:10:40.374Z,19.70
2018-09-20T08:11:44.954Z,19.70
2018-09-20T08:12:49.241Z,19.80
2018-09-20T08:13:53.460Z,19.80
2018-09-20T08:14:57.598Z,19.80
2018-09-20T08:16:01.805Z,19.90
2018-09-20T08:17:06.069Z,19.90
2018-09-20T08:18:10.587Z,19.90
2018-09-20T08:19:14.832Z,20.00
2018-09-20T08:20:19.420Z,20.00
2018-09-20T08:21:23.954Z,20.00
2018-09-20T08:22:28.551Z,20.00
2018-09-20T08:23:32.703Z,20.10
2018-09-20T08:24:37.066Z,20.10
2018-09-20T08:25:41.398Z,20.10
2018-09-20T08:26:45.650Z,20.20
2018-09-20T08:27:50.188Z,20.20
2018-09-20T08:28:54.380Z,20.20
2018-09-20T08:29:58.754Z,20.30
2018-09-20T08:31:03.206Z,20.40
2018-09-20T08:32:08.070Z,20.40
2018-09-20T08:33:12.251Z,20.40
2018-09-20T08:34:16.425Z,20.50
2018-09-20T08:35:20.561Z,20.50
2018-09-20T08:36:25.118Z,20.50
2018-09-20T08:37:29.594Z,20.40
2018-09-20T08:38:34.058Z,20.50
2018-09-20T08:39:38.284Z,20.50
2018-09-20T08:40:42.577Z,20.50
2018-09-20T08:41:47.166Z,20.60
2018-09-20T08:42:51.534Z,20.60
2018-09-20T08:43:55.650Z,20.60
2018-09-20T08:44:59.794Z,20.70
2018-09-20T08:46:04.235Z,20.80
2018-09-20T08:47:08.749Z,20.80
2018-09-20T08:48:12.778Z,20.80
2018-09-20T08:49:17.106Z,20.80
2018-09-20T08:50:21.535Z,20.80
2018-09-20T08:51:25.895Z,20.90
2018-09-20T08:52:30.155Z,20.90
2018-09-20T08:53:34.489Z,20.90
2018-09-20T08:54:38.842Z,20.90
2018-09-20T08:55:43.142Z,21.00
2018-09-20T08:56:47.271Z,21.10
2018-09-20T08:57:51.460Z,21.10
2018-09-20T08:58:55.765Z,21.10
2018-09-20T09:00:00.260Z,21.20
2018-09-20T09:01:05.187Z,21.20
2018-09-20T09:02:09.372Z,21.30
2018-09-20T09:03:13.497Z,21.30
2018-09-20T09:04:17.882Z,21.30
2018-09-20T09:05:22.160Z,21.40
2018-09-20T09:06:26.290Z,21.50
2018-09-20T09:07:30.548Z,21.50
2018-09-20T09:08:34.908Z,21.60
2018-09-20T09:09:39.467Z,21.50
2018-09-20T09:10:43.833Z,21.60
2018-09-20T09:11:47.967Z,21.60
2018-09-20T09:12:52.282Z,21.60
2018-09-20T09:13:56.439Z,21.70
2018-09-20T09:15:00.857Z,21.70
2018-09-20T09:16:05.331Z,21.80
2018-09-20T09:17:09.774Z,21.80
2018-09-20T09:18:13.884Z,21.90
2018-09-20T09:19:18.009Z,21.90
2018-09-20T09:20:22.263Z,21.80
2018-09-20T09:21:26.718Z,21.90
2018-09-20T09:22:31.086Z,21.80
2018-09-20T09:23:35.245Z,21.90
2018-09-20T09:24:39.467Z,21.90
2018-09-20T09:25:43.633Z,21.90
2018-09-20T09:26:47.773Z,22.00
2018-09-20T09:27:51.906Z,22.00
2018-09-20T09:28:55.975Z,22.10
2018-09-20T09:30:00.567Z,22.20
2018-09-20T09:31:04.809Z,22.10
2018-09-20T09:32:09.079Z,22.20
2018-09-20T09:33:13.647Z,22.20
2018-09-20T09:34:18.133Z,22.20
2018-09-20T09:35:22.276Z,22.30
2018-09-20T09:36:26.629Z,22.30
2018-09-20T09:37:30.797Z,22.30
2018-09-20T09:38:35.168Z,22.40
2018-09-20T09:39:39.636Z,22.40
2018-09-20T09:40:43.946Z,22.40
2018-09-20T09:41:48.497Z,22.60
2018-09-20T09:42:52.773Z,22.60
2018-09-20T09:43:56.903Z,22.60
2018-09-20T09:45:01.075Z,22.50
2018-09-20T09:46:05.261Z,22.60
2018-09-20T09:47:09.419Z,22.70
2018-09-20T09:48:13.687Z,22.60
2018-09-20T09:49:17.805Z,22.70
2018-09-20T09:50:22.370Z,22.60
2018-09-20T09:51:26.716Z,22.60
2018-09-20T09:52:32.260Z,22.60
2018-09-20T09:53:36.675Z,22.60
2018-09-20T09:54:43.342Z,22.60
2018-09-20T09:55:47.955Z,22.70
2018-09-20T09:56:52.263Z,22.60
2018-09-20T09:57:56.509Z,22.60
2018-09-20T09:59:00.886Z,22.70
2018-09-20T10:00:05.788Z,22.70
2018-09-20T10:01:10.157Z,22.80
2018-09-20T10:02:14.359Z,22.80
2018-09-20T10:03:18.694Z,22.80
2018-09-20T10:04:22.960Z,22.80
2018-09-20T10:05:27.677Z,22.80
2018-09-20T10:06:31.887Z,22.80
2018-09-20T10:07:36.261Z,22.80
2018-09-20T10:08:40.588Z,22.80
2018-09-20T10:09:44.694Z,23.00
2018-09-20T10:10:49.036Z,23.10
2018-09-20T10:11:53.241Z,23.10
2018-09-20T10:12:57.500Z,23.10
2018-09-20T10:14:01.723Z,23.00
2018-09-20T10:15:06.018Z,23.10
2018-09-20T10:16:10.204Z,23.10
2018-09-20T10:17:14.344Z,23.20
2018-09-20T10:18:18.633Z,23.20
2018-09-20T10:19:22.994Z,23.20
2018-09-20T10:20:27.439Z,23.30
2018-09-20T10:21:31.496Z,23.40
2018-09-20T10:22:35.677Z,23.40
2018-09-20T10:23:39.745Z,23.50
2018-09-20T10:24:43.861Z,23.40
2018-09-20T10:25:48.100Z,23.40
2018-09-20T10:26:52.226Z,23.40
2018-09-20T10:27:56.444Z,23.40
2018-09-20T10:29:00.772Z,23.40
2018-09-20T10:30:06.061Z,23.50
2018-09-20T10:31:10.241Z,23.60
2018-09-20T10:32:14.359Z,23.60
2018-09-20T10:33:18.620Z,23.60
2018-09-20T10:34:22.777Z,23.70
2018-09-20T10:35:27.541Z,23.70
2018-09-20T10:36:31.825Z,23.80
2018-09-20T10:37:36.518Z,23.80
2018-09-20T10:38:40.742Z,23.80
2018-09-20T10:39:44.974Z,23.80
2018-09-20T10:40:49.214Z,23.90
2018-09-20T10:41:53.337Z,23.80
2018-09-20T10:42:57.840Z,23.90
2018-09-20T10:44:02.152Z,23.80
2018-09-20T10:45:06.432Z,23.80
2018-09-20T10:46:10.700Z,23.80
2018-09-20T10:47:14.934Z,23.90
2018-09-20T10:48:19.250Z,24.00
2018-09-20T10:49:23.789Z,24.00
2018-09-20T10:50:28.337Z,24.00
2018-09-20T10:51:32.614Z,24.00
2018-09-20T10:52:37.189Z,24.00
2018-09-20T10:53:41.419Z,24.00
2018-09-20T10:54:46.121Z,24.00
2018-09-20T10:55:50.538Z,24.10
2018-09-20T10:56:54.710Z,24.10
2018-09-20T10:57:58.982Z,24.10
2018-09-20T10:59:03.813Z,24.10
2018-09-20T11:00:08.049Z,24.10
2018-09-20T11:01:12.373Z,24.10
2018-09-20T11:02:16.588Z,24.20
2018-09-20T11:03:20.806Z,24.30
2018-09-20T11:04:25.002Z,24.40
2018-09-20T11:05:29.503Z,24.50
2018-09-20T11:06:33.905Z,24.40
2018-09-20T11:07:38.194Z,24.40
2018-09-20T11:08:42.354Z,24.30
2018-09-20T11:09:46.370Z,24.30
2018-09-20T11:10:50.796Z,24.30
2018-09-20T11:11:55.125Z,24.40
2018-09-20T11:12:59.453Z,24.40
2018-09-20T11:14:03.782Z,24.40
2018-09-20T11:15:07.914Z,24.50
2018-09-20T11:16:12.323Z,24.50
2018-09-20T11:17:16.433Z,24.50
2018-09-20T11:18:20.817Z,24.60
2018-09-20T11:19:25.024Z,24.60
2018-09-20T11:20:29.448Z,24.60
2018-09-20T11:21:33.608Z,24.70
2018-09-20T11:22:38.119Z,24.70
2018-09-20T11:23:42.540Z,24.80
2018-09-20T11:24:46.678Z,24.80
2018-09-20T11:25:51.020Z,24.80
2018-09-20T11:26:55.196Z,24.90
2018-09-20T11:27:59.359Z,24.80
2018-09-20T11:29:03.765Z,24.70
2018-09-20T11:30:08.035Z,24.70
2018-09-20T11:31:12.256Z,24.70
2018-09-20T11:32:16.685Z,24.70
2018-09-20T11:33:20.782Z,24.90
2018-09-20T11:34:24.991Z,24.80
2018-09-20T11:35:29.471Z,24.80
2018-09-20T11:36:33.684Z,24.70
2018-09-20T11:37:38.180Z,24.80
2018-09-20T11:38:42.531Z,24.80
2018-09-20T11:39:46.805Z,24.90
2018-09-20T11:40:51.328Z,25.00
2018-09-20T11:41:55.662Z,25.00
2018-09-20T11:43:00.034Z,25.00
2018-09-20T11:44:04.327Z,25.00
2018-09-20T11:45:08.584Z,25.00
2018-09-20T11:46:12.843Z,25.10
2018-09-20T11:47:17.115Z,25.20
2018-09-20T11:48:21.440Z,25.10
2018-09-20T11:49:25.718Z,25.10
2018-09-20T11:50:30.089Z,25.10
2018-09-20T11:51:34.506Z,25.20
2018-09-20T11:52:38.826Z,25.20
2018-09-20T11:53:43.154Z,25.20
2018-09-20T11:54:47.509Z,25.30
2018-09-20T11:55:51.919Z,25.30
2018-09-20T11:56:56.177Z,25.30
2018-09-20T11:58:00.294Z,25.30
2018-09-20T11:59:04.678Z,25.40
2018-09-20T12:00:09.070Z,25.60
2018-09-20T12:01:13.575Z,25.60
2018-09-20T12:02:17.749Z,25.70
2018-09-20T12:03:21.835Z,25.60
2018-09-20T12:04:26.096Z,25.70
2018-09-20T12:05:30.668Z,25.60
2018-09-20T12:06:34.819Z,25.60
2018-09-20T12:07:39.192Z,25.50
2018-09-20T12:08:43.686Z,25.50
2018-09-20T12:09:47.854Z,25.50
2018-09-20T12:10:52.119Z,25.50
2018-09-20T12:11:56.286Z,25.50
2018-09-20T12:13:00.637Z,25.40
2018-09-20T12:14:04.943Z,25.50
2018-09-20T12:15:09.051Z,25.50
2018-09-20T12:16:13.302Z,25.50
2018-09-20T12:17:17.720Z,25.50
2018-09-20T12:18:21.889Z,25.50
2018-09-20T12:19:26.443Z,25.50
2018-09-20T12:20:30.770Z,25.50
2018-09-20T12:21:35.049Z,25.70
2018-09-20T12:22:39.310Z,25.70
2018-09-20T12:23:43.594Z,25.70
2018-09-20T12:24:48.131Z,25.80
2018-09-20T12:25:52.309Z,25.80
2018-09-20T12:26:56.581Z,25.90
2018-09-20T12:28:00.772Z,25.90
2018-09-20T12:29:05.101Z,26.00
2018-09-20T12:30:09.563Z,25.90
2018-09-20T12:31:13.663Z,26.00
2018-09-20T12:32:17.876Z,26.10
2018-09-20T12:33:22.387Z,26.10
2018-09-20T12:34:26.955Z,26.10
2018-09-20T12:35:31.053Z,26.10
2018-09-20T12:36:35.423Z,26.20
2018-09-20T12:37:39.772Z,26.20
2018-09-20T12:38:44.008Z,26.20
2018-09-20T12:39:48.068Z,26.40
2018-09-20T12:40:52.297Z,26.50
2018-09-20T12:41:56.752Z,26.40
2018-09-20T12:43:00.932Z,26.50
2018-09-20T12:44:05.160Z,26.50
2018-09-20T12:45:09.303Z,26.50
2018-09-20T12:46:13.521Z,26.60
2018-09-20T12:47:17.682Z,26.70
2018-09-20T12:48:22.216Z,26.80
2018-09-20T12:49:26.426Z,26.90
2018-09-20T12:50:30.800Z,26.80
2018-09-20T12:51:35.689Z,26.90
2018-09-20T12:52:39.838Z,26.90
2018-09-20T12:53:44.273Z,26.90
2018-09-20T12:54:48.632Z,26.90
2018-09-20T12:55:52.826Z,27.00
2018-09-20T12:56:57.190Z,27.10
2018-09-20T12:58:01.559Z,27.10
2018-09-20T12:59:05.720Z,27.10
2018-09-20T13:00:10.604Z,27.10
2018-09-20T13:01:15.153Z,27.20
2018-09-20T13:02:19.690Z,27.30
2018-09-20T13:03:23.788Z,27.40
2018-09-20T13:04:28.421Z,27.50
2018-09-20T13:05:32.558Z,27.60
2018-09-20T13:06:36.746Z,27.70
2018-09-20T13:07:41.199Z,27.80
2018-09-20T13:08:45.461Z,27.80
2018-09-20T13:09:49.693Z,27.80
2018-09-20T13:10:53.944Z,27.80
2018-09-20T13:11:58.038Z,27.80
2018-09-20T13:13:02.537Z,27.90
2018-09-20T13:14:06.772Z,28.00
2018-09-20T13:15:11.007Z,28.10
2018-09-20T13:16:15.191Z,28.20
2018-09-20T13:17:19.306Z,28.30
2018-09-20T13:18:23.746Z,28.40
2018-09-20T13:19:28.128Z,28.40
2018-09-20T13:20:32.514Z,28.40
2018-09-20T13:21:36.959Z,28.50
2018-09-20T13:22:41.279Z,28.60
2018-09-20T13:23:45.394Z,28.60
2018-09-20T13:24:49.830Z,28.70
2018-09-20T13:25:54.346Z,28.80
2018-09-20T13:26:58.659Z,28.80
2018-09-20T13:28:03.075Z,28.80
2018-09-20T13:29:07.509Z,28.80
2018-09-20T13:30:11.854Z,28.80
2018-09-20T13:31:16.238Z,29.00
2018-09-20T13:32:20.742Z,29.10
2018-09-20T13:33:25.101Z,29.30
2018-09-20T13:34:29.315Z,29.50
2018-09-20T13:35:33.540Z,29.60
2018-09-20T13:36:37.685Z,29.60
2018-09-20T13:37:42.354Z,29.70
2018-09-20T13:38:46.412Z,29.90
2018-09-20T13:39:50.719Z,29.90
2018-09-20T13:40:55.014Z,30.00
2018-09-20T13:41:59.245Z,30.20
2018-09-20T13:43:03.498Z,30.30
2018-09-20T13:44:07.899Z,30.40
2018-09-20T13:45:11.965Z,30.40
2018-09-20T13:46:16.130Z,30.50
2018-09-20T13:47:20.670Z,30.60
2018-09-20T13:48:24.883Z,30.70
2018-09-20T13:49:29.142Z,30.80